Tanana, AK (99777)

11:07 PM AKDT on October 20, 2014 (GMT -0800)
Calhoun Memorial | Change Station
CLOSE
Current Station
Airport
Location: Tanana,
Elevation: 220 ft
Nearby Weather Stations

Elev 220 ft 65.18 °N, 152.11 °W | Updated 15 minutes ago

Overcast
Overcast
32 °F
Feels Like 26 °F
N
7
Wind Variable Wind from East

Today
High -- | Low -- °F
--% Chance of Precip.
Yesterday
High -- | Low -- °F
Precip. -- in
9:18 AM 6:24 PM
Waning Crescent, 7% visible
Pressure 29.31 in
Visibility 10.0 miles
Clouds Overcast 4000 ft
Windchill 26 °F
Dew Point 21 °F
Humidity 64%
Rainfall 0.00 in
Snow Depth Not available.
UV 0 out of 12
Pollen Not available.
Air Quality Not available.
Flu Activity Sporadic
METAR PATA 210652Z AUTO 08006KT 10SM OVC040 00/M06 A2929 RMK AO2 SLP924 T00001061 TSNO

More Conditions Fewer Conditions

Pressure 29.31 in
Visibility 10.0 miles
Clouds Overcast 4000 ft
Windchill 26 °F
Dew Point 21 °F
Humidity 64%
Rainfall 0.00 in
Snow Depth Not available.
UV 0 out of 12
Pollen Not available.
Air Quality Not available.
Flu Activity Sporadic
METAR PATA 210652Z AUTO 08006KT 10SM OVC040 00/M06 A2929 RMK AO2 SLP924 T00001061 TSNO

More Conditions Fewer Conditions

10-Day Weather Forecast

Almanac

Astronomy

Oct. 20, 2014 Rise Set
Actual Time 9:18 AM AKDT 6:24 PM AKDT
Civil Twilight 8:26 AM AKDT 7:16 PM AKDT
Nautical Twilight 7:28 AM AKDT 8:14 PM AKDT
Astronomical Twilight 6:30 AM AKDT 9:12 PM AKDT
Moon 5:11 AM AKDT (10/20) 5:47 PM AKDT (10/20)
Length of Visible Light 10h 50m
Length of Day
9h 06m
Tomorrow will be 6m 54s shorter.
Waning Crescent, 7% of the Moon is Illuminated
Oct 21
Waning Crescent
Oct 23
New
Oct 30
First Quarter
Nov 6
Full
Nov 14
Last Quarter

Community

WunderPhotos

Upload Photos

1,763,619 photos uploaded!

Nearby

Snow Depth

Station Depth Elevation
Gobblers Knob 1 in 2030 ft
Coldfoot 4 in 1040 ft
Little Chena Ridge 5 in 2000 ft
Mt. Ryan 7 in 2800 ft
Munson Ridge 11 in 3100 ft

Earthquake Activity

City Distance Mag. Time & Date
No recent earthquake activity has been reported nearby.
Minimum magnitude displayed is 2.5.

Coastal Water Temperatures

Place Temperature
No Stations Reporting

Nearby Weather Stations